sensor_id;sensor_type;location;lat;lon;timestamp;P1;durP1;ratioP1;P2;durP2;ratioP2
36839;SDS011;24406;51.640;9.566;2023-05-19T00:03:10;8.30;;;2.88;;
36839;SDS011;24406;51.640;9.566;2023-05-19T00:08:12;5.88;;;3.30;;
36839;SDS011;24406;51.640;9.566;2023-05-19T00:13:17;11.32;;;4.60;;
36839;SDS011;24406;51.640;9.566;2023-05-19T00:18:19;5.57;;;2.55;;
36839;SDS011;24406;51.640;9.566;2023-05-19T00:23:22;5.68;;;3.38;;
36839;SDS011;24406;51.640;9.566;2023-05-19T00:28:24;3.30;;;2.63;;
36839;SDS011;24406;51.640;9.566;2023-05-19T00:33:26;3.78;;;2.90;;
36839;SDS011;24406;51.640;9.566;2023-05-19T00:38:29;6.63;;;2.78;;
36839;SDS011;24406;51.640;9.566;2023-05-19T00:43:32;5.22;;;2.88;;
36839;SDS011;24406;51.640;9.566;2023-05-19T00:48:34;5.05;;;3.13;;
36839;SDS011;24406;51.640;9.566;2023-05-19T00:53:36;3.55;;;2.90;;
36839;SDS011;24406;51.640;9.566;2023-05-19T00:58:38;8.13;;;3.30;;
36839;SDS011;24406;51.640;9.566;2023-05-19T01:03:40;6.28;;;2.90;;
36839;SDS011;24406;51.640;9.566;2023-05-19T01:08:43;6.10;;;3.38;;
36839;SDS011;24406;51.640;9.566;2023-05-19T01:13:46;5.40;;;3.20;;
36839;SDS011;24406;51.640;9.566;2023-05-19T01:18:51;3.72;;;3.10;;
36839;SDS011;24406;51.640;9.566;2023-05-19T01:23:59;6.95;;;3.15;;
36839;SDS011;24406;51.640;9.566;2023-05-19T01:29:19;8.05;;;3.45;;
36839;SDS011;24406;51.640;9.566;2023-05-19T01:34:30;4.95;;;3.72;;
36839;SDS011;24406;51.640;9.566;2023-05-19T01:39:33;3.53;;;3.22;;
36839;SDS011;24406;51.640;9.566;2023-05-19T01:44:35;11.13;;;3.20;;
36839;SDS011;24406;51.640;9.566;2023-05-19T01:49:39;5.88;;;3.08;;
36839;SDS011;24406;51.640;9.566;2023-05-19T01:54:40;4.63;;;3.08;;
36839;SDS011;24406;51.640;9.566;2023-05-19T01:59:45;4.10;;;3.70;;
36839;SDS011;24406;51.640;9.566;2023-05-19T02:04:56;3.70;;;2.80;;
36839;SDS011;24406;51.640;9.566;2023-05-19T02:10:04;5.53;;;3.45;;
36839;SDS011;24406;51.640;9.566;2023-05-19T02:15:08;4.20;;;3.78;;
36839;SDS011;24406;51.640;9.566;2023-05-19T02:20:13;6.95;;;3.75;;
36839;SDS011;24406;51.640;9.566;2023-05-19T02:25:15;4.18;;;3.60;;
36839;SDS011;24406;51.640;9.566;2023-05-19T02:30:17;5.15;;;3.53;;
36839;SDS011;24406;51.640;9.566;2023-05-19T02:35:19;5.55;;;3.25;;
36839;SDS011;24406;51.640;9.566;2023-05-19T02:40:21;9.85;;;3.50;;
36839;SDS011;24406;51.640;9.566;2023-05-19T02:45:23;6.30;;;3.20;;
36839;SDS011;24406;51.640;9.566;2023-05-19T02:50:28;6.05;;;3.65;;
36839;SDS011;24406;51.640;9.566;2023-05-19T02:55:30;7.40;;;3.92;;
36839;SDS011;24406;51.640;9.566;2023-05-19T03:00:32;3.25;;;3.00;;
36839;SDS011;24406;51.640;9.566;2023-05-19T03:05:34;5.18;;;3.10;;
36839;SDS011;24406;51.640;9.566;2023-05-19T03:10:36;5.45;;;3.83;;
36839;SDS011;24406;51.640;9.566;2023-05-19T03:15:37;5.40;;;3.30;;
36839;SDS011;24406;51.640;9.566;2023-05-19T03:20:40;8.43;;;3.72;;
36839;SDS011;24406;51.640;9.566;2023-05-19T03:25:43;5.53;;;4.40;;
36839;SDS011;24406;51.640;9.566;2023-05-19T03:30:45;4.82;;;4.03;;
36839;SDS011;24406;51.640;9.566;2023-05-19T03:35:53;6.38;;;4.15;;
36839;SDS011;24406;51.640;9.566;2023-05-19T03:40:56;5.15;;;3.70;;
36839;SDS011;24406;51.640;9.566;2023-05-19T03:45:58;4.10;;;3.67;;
36839;SDS011;24406;51.640;9.566;2023-05-19T03:51:16;5.25;;;4.20;;
36839;SDS011;24406;51.640;9.566;2023-05-19T03:56:19;4.05;;;3.50;;
36839;SDS011;24406;51.640;9.566;2023-05-19T04:01:22;8.35;;;3.80;;
36839;SDS011;24406;51.640;9.566;2023-05-19T04:06:25;5.25;;;3.75;;
36839;SDS011;24406;51.640;9.566;2023-05-19T04:11:27;6.82;;;3.53;;
36839;SDS011;24406;51.640;9.566;2023-05-19T04:16:29;5.70;;;3.50;;
36839;SDS011;24406;51.640;9.566;2023-05-19T04:21:32;6.63;;;3.35;;
36839;SDS011;24406;51.640;9.566;2023-05-19T04:26:34;7.07;;;3.53;;
36839;SDS011;24406;51.640;9.566;2023-05-19T04:31:38;6.22;;;3.70;;
36839;SDS011;24406;51.640;9.566;2023-05-19T04:36:41;8.00;;;3.85;;
36839;SDS011;24406;51.640;9.566;2023-05-19T04:41:43;4.10;;;3.60;;
36839;SDS011;24406;51.640;9.566;2023-05-19T04:46:45;3.20;;;2.97;;
36839;SDS011;24406;51.640;9.566;2023-05-19T04:51:48;5.03;;;3.80;;
36839;SDS011;24406;51.640;9.566;2023-05-19T04:56:55;7.75;;;6.03;;
36839;SDS011;24406;51.640;9.566;2023-05-19T05:01:58;8.95;;;5.88;;
36839;SDS011;24406;51.640;9.566;2023-05-19T05:07:04;6.20;;;5.60;;
36839;SDS011;24406;51.640;9.566;2023-05-19T05:12:07;7.00;;;5.80;;
36839;SDS011;24406;51.640;9.566;2023-05-19T05:17:13;6.65;;;5.97;;
36839;SDS011;24406;51.640;9.566;2023-05-19T05:22:17;8.45;;;4.88;;
36839;SDS011;24406;51.640;9.566;2023-05-19T05:27:20;5.35;;;4.70;;
36839;SDS011;24406;51.640;9.566;2023-05-19T05:32:21;6.68;;;5.10;;
36839;SDS011;24406;51.640;9.566;2023-05-19T05:37:24;6.90;;;4.95;;
36839;SDS011;24406;51.640;9.566;2023-05-19T05:42:26;9.73;;;5.80;;
36839;SDS011;24406;51.640;9.566;2023-05-19T05:47:29;6.75;;;6.07;;
36839;SDS011;24406;51.640;9.566;2023-05-19T05:52:32;11.80;;;7.15;;
36839;SDS011;24406;51.640;9.566;2023-05-19T05:57:34;9.70;;;7.22;;
36839;SDS011;24406;51.640;9.566;2023-05-19T06:02:36;8.93;;;6.80;;
36839;SDS011;24406;51.640;9.566;2023-05-19T06:07:40;8.75;;;7.57;;
36839;SDS011;24406;51.640;9.566;2023-05-19T06:12:43;11.75;;;7.10;;
36839;SDS011;24406;51.640;9.566;2023-05-19T06:17:45;9.15;;;6.75;;
36839;SDS011;24406;51.640;9.566;2023-05-19T06:22:48;8.20;;;6.50;;
36839;SDS011;24406;51.640;9.566;2023-05-19T06:27:52;12.05;;;7.32;;
36839;SDS011;24406;51.640;9.566;2023-05-19T06:32:55;10.40;;;7.30;;
36839;SDS011;24406;51.640;9.566;2023-05-19T06:38:00;9.68;;;6.82;;
36839;SDS011;24406;51.640;9.566;2023-05-19T06:43:02;9.60;;;5.72;;
36839;SDS011;24406;51.640;9.566;2023-05-19T06:48:27;8.82;;;5.55;;
36839;SDS011;24406;51.640;9.566;2023-05-19T06:53:30;5.53;;;4.22;;
36839;SDS011;24406;51.640;9.566;2023-05-19T06:58:36;7.90;;;4.45;;
36839;SDS011;24406;51.640;9.566;2023-05-19T07:03:40;8.75;;;4.68;;
36839;SDS011;24406;51.640;9.566;2023-05-19T07:08:45;5.97;;;3.75;;
36839;SDS011;24406;51.640;9.566;2023-05-19T07:13:50;11.02;;;3.65;;
36839;SDS011;24406;51.640;9.566;2023-05-19T07:18:57;7.70;;;3.83;;
36839;SDS011;24406;51.640;9.566;2023-05-19T07:24:01;7.10;;;3.88;;
36839;SDS011;24406;51.640;9.566;2023-05-19T07:29:03;9.88;;;4.28;;
36839;SDS011;24406;51.640;9.566;2023-05-19T07:34:05;7.88;;;3.72;;
36839;SDS011;24406;51.640;9.566;2023-05-19T07:39:09;10.13;;;4.82;;
36839;SDS011;24406;51.640;9.566;2023-05-19T07:44:11;9.95;;;3.65;;
36839;SDS011;24406;51.640;9.566;2023-05-19T07:49:13;10.55;;;2.65;;
36839;SDS011;24406;51.640;9.566;2023-05-19T07:54:18;9.15;;;2.92;;
36839;SDS011;24406;51.640;9.566;2023-05-19T07:59:22;12.10;;;3.75;;
36839;SDS011;24406;51.640;9.566;2023-05-19T08:04:38;8.38;;;3.45;;
36839;SDS011;24406;51.640;9.566;2023-05-19T08:09:41;10.57;;;4.10;;
36839;SDS011;24406;51.640;9.566;2023-05-19T08:14:43;7.20;;;3.40;;
36839;SDS011;24406;51.640;9.566;2023-05-19T08:19:45;5.40;;;2.38;;
36839;SDS011;24406;51.640;9.566;2023-05-19T08:24:48;6.90;;;2.40;;
36839;SDS011;24406;51.640;9.566;2023-05-19T08:29:51;6.88;;;2.38;;
36839;SDS011;24406;51.640;9.566;2023-05-19T08:34:54;3.92;;;2.25;;
36839;SDS011;24406;51.640;9.566;2023-05-19T08:39:57;4.07;;;2.28;;
36839;SDS011;24406;51.640;9.566;2023-05-19T08:44:58;3.00;;;2.05;;
36839;SDS011;24406;51.640;9.566;2023-05-19T08:50:02;6.28;;;2.30;;
36839;SDS011;24406;51.640;9.566;2023-05-19T08:55:12;5.07;;;1.88;;
36839;SDS011;24406;51.640;9.566;2023-05-19T09:00:20;6.32;;;1.80;;
36839;SDS011;24406;51.640;9.566;2023-05-19T09:05:22;3.47;;;2.00;;
36839;SDS011;24406;51.640;9.566;2023-05-19T09:10:26;5.28;;;1.40;;
36839;SDS011;24406;51.640;9.566;2023-05-19T09:15:27;2.28;;;1.52;;
36839;SDS011;24406;51.640;9.566;2023-05-19T09:20:29;7.38;;;1.95;;
36839;SDS011;24406;51.640;9.566;2023-05-19T09:25:32;2.80;;;1.73;;
36839;SDS011;24406;51.640;9.566;2023-05-19T09:30:34;2.72;;;1.77;;
36839;SDS011;24406;51.640;9.566;2023-05-19T09:35:35;4.47;;;1.67;;
36839;SDS011;24406;51.640;9.566;2023-05-19T09:40:38;2.50;;;1.85;;
36839;SDS011;24406;51.640;9.566;2023-05-19T09:45:40;5.30;;;1.70;;
36839;SDS011;24406;51.640;9.566;2023-05-19T09:50:42;4.00;;;1.88;;
36839;SDS011;24406;51.640;9.566;2023-05-19T09:55:47;2.90;;;1.75;;
36839;SDS011;24406;51.640;9.566;2023-05-19T10:00:49;4.35;;;2.38;;
36839;SDS011;24406;51.640;9.566;2023-05-19T10:05:51;5.63;;;2.10;;
36839;SDS011;24406;51.640;9.566;2023-05-19T10:10:55;3.70;;;2.00;;
36839;SDS011;24406;51.640;9.566;2023-05-19T10:15:57;4.18;;;1.95;;
36839;SDS011;24406;51.640;9.566;2023-05-19T10:20:58;2.70;;;2.17;;
36839;SDS011;24406;51.640;9.566;2023-05-19T10:26:02;3.67;;;2.00;;
36839;SDS011;24406;51.640;9.566;2023-05-19T10:31:07;2.72;;;1.50;;
36839;SDS011;24406;51.640;9.566;2023-05-19T10:36:14;3.13;;;2.10;;
36839;SDS011;24406;51.640;9.566;2023-05-19T10:41:34;4.05;;;1.67;;
36839;SDS011;24406;51.640;9.566;2023-05-19T10:46:41;5.03;;;1.90;;
36839;SDS011;24406;51.640;9.566;2023-05-19T10:51:43;9.88;;;2.13;;
36839;SDS011;24406;51.640;9.566;2023-05-19T10:56:46;4.07;;;2.20;;
36839;SDS011;24406;51.640;9.566;2023-05-19T11:01:48;3.20;;;1.80;;
36839;SDS011;24406;51.640;9.566;2023-05-19T11:06:50;2.05;;;1.65;;
36839;SDS011;24406;51.640;9.566;2023-05-19T11:11:54;6.47;;;2.45;;
36839;SDS011;24406;51.640;9.566;2023-05-19T11:16:56;4.90;;;1.67;;
36839;SDS011;24406;51.640;9.566;2023-05-19T11:22:06;3.50;;;1.85;;
36839;SDS011;24406;51.640;9.566;2023-05-19T11:27:19;4.50;;;1.95;;
36839;SDS011;24406;51.640;9.566;2023-05-19T11:32:24;4.30;;;1.83;;
36839;SDS011;24406;51.640;9.566;2023-05-19T11:37:30;2.47;;;1.80;;
36839;SDS011;24406;51.640;9.566;2023-05-19T11:42:35;2.05;;;1.83;;
36839;SDS011;24406;51.640;9.566;2023-05-19T11:47:36;3.50;;;1.52;;
36839;SDS011;24406;51.640;9.566;2023-05-19T11:52:38;2.67;;;1.35;;
36839;SDS011;24406;51.640;9.566;2023-05-19T11:57:51;2.97;;;1.65;;
36839;SDS011;24406;51.640;9.566;2023-05-19T12:02:57;3.53;;;1.60;;
36839;SDS011;24406;51.640;9.566;2023-05-19T12:07:59;2.00;;;1.50;;
36839;SDS011;24406;51.640;9.566;2023-05-19T12:13:02;2.58;;;1.90;;
36839;SDS011;24406;51.640;9.566;2023-05-19T12:18:05;3.55;;;1.50;;
36839;SDS011;24406;51.640;9.566;2023-05-19T12:23:07;2.15;;;1.50;;
36839;SDS011;24406;51.640;9.566;2023-05-19T12:28:10;4.65;;;1.83;;
36839;SDS011;24406;51.640;9.566;2023-05-19T12:33:15;3.85;;;2.13;;
36839;SDS011;24406;51.640;9.566;2023-05-19T12:38:18;3.75;;;1.60;;
36839;SDS011;24406;51.640;9.566;2023-05-19T12:43:21;2.35;;;1.80;;
36839;SDS011;24406;51.640;9.566;2023-05-19T12:48:23;3.47;;;1.70;;
36839;SDS011;24406;51.640;9.566;2023-05-19T12:53:24;3.30;;;1.52;;
36839;SDS011;24406;51.640;9.566;2023-05-19T12:58:31;2.83;;;1.88;;
36839;SDS011;24406;51.640;9.566;2023-05-19T13:03:38;2.13;;;1.63;;
36839;SDS011;24406;51.640;9.566;2023-05-19T13:08:40;2.85;;;1.90;;
36839;SDS011;24406;51.640;9.566;2023-05-19T13:13:43;2.17;;;1.80;;
36839;SDS011;24406;51.640;9.566;2023-05-19T13:18:44;1.67;;;1.42;;
36839;SDS011;24406;51.640;9.566;2023-05-19T13:23:46;2.10;;;1.55;;
36839;SDS011;24406;51.640;9.566;2023-05-19T13:28:49;6.00;;;2.10;;
36839;SDS011;24406;51.640;9.566;2023-05-19T13:33:50;5.80;;;1.90;;
36839;SDS011;24406;51.640;9.566;2023-05-19T13:38:52;2.53;;;1.73;;
36839;SDS011;24406;51.640;9.566;2023-05-19T13:43:55;4.47;;;1.73;;
36839;SDS011;24406;51.640;9.566;2023-05-19T13:48:57;2.56;;;1.84;;
36839;SDS011;24406;51.640;9.566;2023-05-19T13:53:59;2.28;;;1.60;;
36839;SDS011;24406;51.640;9.566;2023-05-19T13:59:02;4.75;;;2.45;;
36839;SDS011;24406;51.640;9.566;2023-05-19T14:04:04;3.88;;;1.90;;
36839;SDS011;24406;51.640;9.566;2023-05-19T14:09:05;3.80;;;1.83;;
36839;SDS011;24406;51.640;9.566;2023-05-19T14:14:08;4.57;;;1.58;;
36839;SDS011;24406;51.640;9.566;2023-05-19T14:19:10;2.10;;;1.60;;
36839;SDS011;24406;51.640;9.566;2023-05-19T14:24:11;5.38;;;1.98;;
36839;SDS011;24406;51.640;9.566;2023-05-19T14:29:14;6.00;;;1.83;;
36839;SDS011;24406;51.640;9.566;2023-05-19T14:34:16;6.63;;;1.55;;
36839;SDS011;24406;51.640;9.566;2023-05-19T14:39:19;4.05;;;1.70;;
36839;SDS011;24406;51.640;9.566;2023-05-19T14:44:22;6.80;;;1.75;;
36839;SDS011;24406;51.640;9.566;2023-05-19T14:49:24;2.42;;;1.63;;
36839;SDS011;24406;51.640;9.566;2023-05-19T14:54:25;3.42;;;1.90;;
36839;SDS011;24406;51.640;9.566;2023-05-19T14:59:28;2.42;;;1.70;;
36839;SDS011;24406;51.640;9.566;2023-05-19T15:04:30;2.78;;;1.50;;
36839;SDS011;24406;51.640;9.566;2023-05-19T15:09:31;4.50;;;1.90;;
36839;SDS011;24406;51.640;9.566;2023-05-19T15:14:34;2.05;;;1.80;;
36839;SDS011;24406;51.640;9.566;2023-05-19T15:19:37;3.45;;;1.42;;
36839;SDS011;24406;51.640;9.566;2023-05-19T15:24:40;2.40;;;1.90;;
36839;SDS011;24406;51.640;9.566;2023-05-19T15:29:44;3.80;;;2.20;;
36839;SDS011;24406;51.640;9.566;2023-05-19T15:34:47;4.85;;;2.00;;
36839;SDS011;24406;51.640;9.566;2023-05-19T15:39:50;2.78;;;1.80;;
36839;SDS011;24406;51.640;9.566;2023-05-19T15:44:55;5.90;;;1.92;;
36839;SDS011;24406;51.640;9.566;2023-05-19T15:49:57;5.25;;;2.78;;
36839;SDS011;24406;51.640;9.566;2023-05-19T15:54:58;4.80;;;2.78;;
36839;SDS011;24406;51.640;9.566;2023-05-19T16:00:01;2.55;;;1.83;;
36839;SDS011;24406;51.640;9.566;2023-05-19T16:05:05;1.90;;;1.55;;
36839;SDS011;24406;51.640;9.566;2023-05-19T16:10:07;3.88;;;1.30;;
36839;SDS011;24406;51.640;9.566;2023-05-19T16:15:11;1.45;;;1.35;;
36839;SDS011;24406;51.640;9.566;2023-05-19T16:20:12;5.38;;;1.95;;
36839;SDS011;24406;51.640;9.566;2023-05-19T16:25:14;2.15;;;1.65;;
36839;SDS011;24406;51.640;9.566;2023-05-19T16:30:17;2.22;;;1.25;;
36839;SDS011;24406;51.640;9.566;2023-05-19T16:35:19;2.85;;;2.28;;
36839;SDS011;24406;51.640;9.566;2023-05-19T16:40:21;3.78;;;1.75;;
36839;SDS011;24406;51.640;9.566;2023-05-19T16:45:24;2.92;;;1.83;;
36839;SDS011;24406;51.640;9.566;2023-05-19T16:50:26;4.90;;;2.42;;
36839;SDS011;24406;51.640;9.566;2023-05-19T16:55:27;3.42;;;1.67;;
36839;SDS011;24406;51.640;9.566;2023-05-19T17:00:30;3.70;;;1.75;;
36839;SDS011;24406;51.640;9.566;2023-05-19T17:05:32;2.17;;;1.60;;
36839;SDS011;24406;51.640;9.566;2023-05-19T17:10:35;2.15;;;1.77;;
36839;SDS011;24406;51.640;9.566;2023-05-19T17:15:39;5.25;;;1.90;;
36839;SDS011;24406;51.640;9.566;2023-05-19T17:20:41;5.25;;;2.08;;
36839;SDS011;24406;51.640;9.566;2023-05-19T17:25:42;2.85;;;1.42;;
36839;SDS011;24406;51.640;9.566;2023-05-19T17:30:45;3.60;;;1.65;;
36839;SDS011;24406;51.640;9.566;2023-05-19T17:35:47;2.05;;;1.70;;
36839;SDS011;24406;51.640;9.566;2023-05-19T17:40:48;4.05;;;2.00;;
36839;SDS011;24406;51.640;9.566;2023-05-19T17:45:51;2.05;;;1.55;;
36839;SDS011;24406;51.640;9.566;2023-05-19T17:50:53;2.35;;;1.85;;
36839;SDS011;24406;51.640;9.566;2023-05-19T17:55:59;2.92;;;2.00;;
36839;SDS011;24406;51.640;9.566;2023-05-19T18:01:03;3.63;;;1.92;;
36839;SDS011;24406;51.640;9.566;2023-05-19T18:06:05;4.90;;;1.58;;
36839;SDS011;24406;51.640;9.566;2023-05-19T18:11:07;3.38;;;1.75;;
36839;SDS011;24406;51.640;9.566;2023-05-19T18:16:15;1.95;;;1.60;;
36839;SDS011;24406;51.640;9.566;2023-05-19T18:21:17;3.10;;;1.80;;
36839;SDS011;24406;51.640;9.566;2023-05-19T18:26:18;4.72;;;1.60;;
36839;SDS011;24406;51.640;9.566;2023-05-19T18:31:21;1.60;;;1.48;;
36839;SDS011;24406;51.640;9.566;2023-05-19T18:36:24;2.30;;;2.10;;
36839;SDS011;24406;51.640;9.566;2023-05-19T18:41:25;1.80;;;1.70;;
36839;SDS011;24406;51.640;9.566;2023-05-19T18:46:28;1.70;;;1.60;;
36839;SDS011;24406;51.640;9.566;2023-05-19T18:51:30;5.82;;;1.40;;
36839;SDS011;24406;51.640;9.566;2023-05-19T18:56:32;1.95;;;1.40;;
36839;SDS011;24406;51.640;9.566;2023-05-19T19:01:35;2.85;;;1.50;;
36839;SDS011;24406;51.640;9.566;2023-05-19T19:06:37;4.00;;;1.85;;
36839;SDS011;24406;51.640;9.566;2023-05-19T19:11:39;1.83;;;1.67;;
36839;SDS011;24406;51.640;9.566;2023-05-19T19:16:41;2.42;;;2.15;;
36839;SDS011;24406;51.640;9.566;2023-05-19T19:21:43;2.58;;;1.77;;
36839;SDS011;24406;51.640;9.566;2023-05-19T19:26:44;4.95;;;2.20;;
36839;SDS011;24406;51.640;9.566;2023-05-19T19:31:47;3.97;;;1.85;;
36839;SDS011;24406;51.640;9.566;2023-05-19T19:36:49;4.25;;;1.65;;
36839;SDS011;24406;51.640;9.566;2023-05-19T19:41:50;2.85;;;1.67;;
36839;SDS011;24406;51.640;9.566;2023-05-19T19:46:55;1.73;;;1.63;;
36839;SDS011;24406;51.640;9.566;2023-05-19T19:51:57;4.72;;;1.90;;
36839;SDS011;24406;51.640;9.566;2023-05-19T19:56:59;3.50;;;2.00;;
36839;SDS011;24406;51.640;9.566;2023-05-19T20:02:02;3.85;;;1.73;;
36839;SDS011;24406;51.640;9.566;2023-05-19T20:07:04;2.97;;;1.92;;
36839;SDS011;24406;51.640;9.566;2023-05-19T20:12:06;3.03;;;1.90;;
36839;SDS011;24406;51.640;9.566;2023-05-19T20:17:09;2.97;;;1.75;;
36839;SDS011;24406;51.640;9.566;2023-05-19T20:22:10;1.90;;;1.73;;
36839;SDS011;24406;51.640;9.566;2023-05-19T20:27:13;4.45;;;1.70;;
36839;SDS011;24406;51.640;9.566;2023-05-19T20:32:16;2.10;;;1.85;;
36839;SDS011;24406;51.640;9.566;2023-05-19T20:37:18;2.95;;;1.60;;
36839;SDS011;24406;51.640;9.566;2023-05-19T20:42:21;2.30;;;2.10;;
36839;SDS011;24406;51.640;9.566;2023-05-19T20:47:25;3.22;;;2.10;;
36839;SDS011;24406;51.640;9.566;2023-05-19T20:52:32;5.57;;;1.88;;
36839;SDS011;24406;51.640;9.566;2023-05-19T20:57:33;2.40;;;2.20;;
36839;SDS011;24406;51.640;9.566;2023-05-19T21:02:40;2.92;;;2.13;;
36839;SDS011;24406;51.640;9.566;2023-05-19T21:07:42;3.33;;;2.10;;
36839;SDS011;24406;51.640;9.566;2023-05-19T21:12:45;1.73;;;1.63;;
36839;SDS011;24406;51.640;9.566;2023-05-19T21:17:48;2.53;;;1.73;;
36839;SDS011;24406;51.640;9.566;2023-05-19T21:22:50;2.58;;;2.15;;
36839;SDS011;24406;51.640;9.566;2023-05-19T21:27:51;2.30;;;2.10;;
36839;SDS011;24406;51.640;9.566;2023-05-19T21:32:55;1.80;;;1.70;;
36839;SDS011;24406;51.640;9.566;2023-05-19T21:37:57;2.47;;;2.20;;
36839;SDS011;24406;51.640;9.566;2023-05-19T21:42:58;3.33;;;2.08;;
36839;SDS011;24406;51.640;9.566;2023-05-19T21:48:01;3.50;;;2.72;;
36839;SDS011;24406;51.640;9.566;2023-05-19T21:53:03;3.70;;;3.35;;
36839;SDS011;24406;51.640;9.566;2023-05-19T21:58:04;3.38;;;3.08;;
36839;SDS011;24406;51.640;9.566;2023-05-19T22:03:07;5.00;;;3.20;;
36839;SDS011;24406;51.640;9.566;2023-05-19T22:08:09;3.50;;;3.20;;
36839;SDS011;24406;51.640;9.566;2023-05-19T22:13:10;7.57;;;3.88;;
36839;SDS011;24406;51.640;9.566;2023-05-19T22:18:13;6.00;;;3.30;;
36839;SDS011;24406;51.640;9.566;2023-05-19T22:23:14;6.70;;;3.20;;
36839;SDS011;24406;51.640;9.566;2023-05-19T22:28:16;8.38;;;3.40;;
36839;SDS011;24406;51.640;9.566;2023-05-19T22:33:19;3.42;;;3.13;;
36839;SDS011;24406;51.640;9.566;2023-05-19T22:38:21;3.17;;;2.88;;
36839;SDS011;24406;51.640;9.566;2023-05-19T22:43:23;3.83;;;3.33;;
36839;SDS011;24406;51.640;9.566;2023-05-19T22:48:25;3.63;;;3.30;;
36839;SDS011;24406;51.640;9.566;2023-05-19T22:53:27;2.80;;;2.60;;
36839;SDS011;24406;51.640;9.566;2023-05-19T22:58:28;3.55;;;2.60;;
36839;SDS011;24406;51.640;9.566;2023-05-19T23:03:31;5.13;;;3.00;;
36839;SDS011;24406;51.640;9.566;2023-05-19T23:08:33;5.18;;;3.08;;
36839;SDS011;24406;51.640;9.566;2023-05-19T23:13:34;5.85;;;3.08;;
36839;SDS011;24406;51.640;9.566;2023-05-19T23:18:37;2.40;;;2.20;;
36839;SDS011;24406;51.640;9.566;2023-05-19T23:23:38;3.88;;;3.17;;
36839;SDS011;24406;51.640;9.566;2023-05-19T23:28:40;4.72;;;2.95;;
36839;SDS011;24406;51.640;9.566;2023-05-19T23:33:43;2.92;;;2.72;;
36839;SDS011;24406;51.640;9.566;2023-05-19T23:38:45;3.45;;;3.08;;
36839;SDS011;24406;51.640;9.566;2023-05-19T23:43:46;2.92;;;2.65;;
36839;SDS011;24406;51.640;9.566;2023-05-19T23:48:52;2.92;;;2.72;;
36839;SDS011;24406;51.640;9.566;2023-05-19T23:53:54;3.20;;;2.90;;
36839;SDS011;24406;51.640;9.566;2023-05-19T23:58:55;3.65;;;3.35;;
